Latest Weather Observations for Liawenee

IDT60801

Issued at 7:32 pm EST Wednesday 24 May 2017 (issued every 30 minutes, with the page automatically refreshed every 10 minutes)

About weather observations | Map of weather stations | Latest weather observations for TAS | Other Formats
Station Details ID: 096033 Name: LIAWENEE Lat: -41.90 Lon: 146.67 Height: 1057.0 m
Data from the previous 72 hours. | See also: Recent months at Liawenee
Date/Time
EST
Temp
°C
App
Temp
°C
Dew
Point
°C
Rel
Hum
%
Delta-T
°C
Wind Press
QNH
hPa
Press
MSL
hPa
Rain since
9am
mm
Dir  Spd
km/h
Gust
km/h
Spd
kts
Gust
kts
24/07:30pm 3.3 -1.4 3.0 98 0.1 WSW 17 24 9 13 1011.9 1012.9 0.0
24/07:00pm 3.1 -2.6 2.8 98 0.1 WSW 22 30 12 16 1011.5 1012.5 0.0
24/06:30pm 3.4 -3.0 3.0 97 0.2 WSW 26 35 14 19 1011.2 1012.2 0.0
24/06:00pm 3.6 -1.6 3.5 99 0.0 WSW 20 28 11 15 1010.8 1011.8 0.0
24/05:30pm 3.7 -2.3 3.4 98 0.1 WSW 24 35 13 19 1010.2 1011.2 0.0
24/05:00pm 3.6 -1.5 3.2 97 0.2 WSW 19 28 10 15 1010.0 1011.0 0.0
24/04:30pm 3.9 -1.8 2.6 91 0.6 WSW 22 32 12 17 1009.6 1010.6 0.0
24/04:00pm 4.2 -1.1 3.0 92 0.5 WSW 20 30 11 16 1009.4 1010.4 0.0
24/03:30pm 4.6 -1.1 3.1 90 0.7 WSW 22 30 12 16 1009.1 1010.0 0.0
24/03:00pm 5.1 -1.5 2.1 81 1.3 WSW 26 35 14 19 1008.5 1009.5 0.0
24/02:30pm 5.7 -1.0 3.9 88 0.8 WSW 28 46 15 25 1008.2 1009.1 0.0
24/02:03pm 5.9 -0.8 3.7 86 1.0 WSW 28 46 15 25 1007.8 1008.7 0.0
24/02:00pm 6.0 -0.3 4.0 87 0.9 WSW 26 39 14 21 1007.7 1008.6 0.0
24/01:30pm 4.8 -1.6 3.1 89 0.7 WSW 26 43 14 23 1007.5 1008.5 0.0
24/01:00pm 4.8 -1.9 3.9 94 0.4 WSW 28 35 15 19 1007.5 1008.5 0.0
24/12:30pm 6.4 -1.1 4.2 86 1.0 WSW 33 41 18 22 1007.3 1008.2 0.0
24/12:01pm 5.2 -2.4 3.1 86 0.9 WSW 32 52 17 28 1007.5 1008.5 0.0
24/12:00pm 5.2 -1.9 3.5 89 0.8 WSW 30 43 16 23 1007.5 1008.5 0.0
24/11:30am 4.7 -2.5 2.9 88 0.8 WSW 30 39 16 21 1007.9 1008.8 0.0
24/11:00am 6.0 0.7 4.8 92 0.6 WSW 22 33 12 18 1007.7 1008.6 0.0
24/10:30am 5.8 -0.3 4.6 92 0.6 WSW 26 35 14 19 1007.4 1008.3 0.0
24/10:00am 5.0 -2.0 4.3 95 0.3 W 30 44 16 24 1007.0 1007.9 0.0
24/09:30am 4.7 -2.3 4.3 97 0.2 WSW 30 46 16 25 1006.7 1007.5 0.0
24/09:26am 4.7 -1.9 4.0 95 0.3 W 28 46 15 25 1006.5 1007.4 0.0
24/09:00am 5.0 -0.3 4.9 99 0.0 W 22 28 12 15 1006.2 1007.1 10.8
24/08:30am 4.8 0.8 4.7 99 0.0 W 15 24 8 13 1006.3 1007.2 10.8
24/08:00am 4.6 1.3 4.5 99 0.0 W 11 17 6 9 1005.9 1006.8 10.8
24/07:30am 5.1 1.1 5.0 99 0.0 WNW 15 22 8 12 1005.9 1006.8 10.8
24/07:00am 5.3 1.4 5.2 99 0.0 NW 15 26 8 14 1006.0 1006.9 10.8
24/06:30am 5.3 2.5 5.2 99 0.0 NNW 9 17 5 9 1005.8 1006.6 10.8
24/06:00am 4.9 1.6 4.8 99 0.0 NNW 11 20 6 11 1006.0 1006.9 10.8
24/05:30am 5.1 1.1 5.0 99 0.0 NW 15 32 8 17 1006.0 1006.9 10.4
24/05:00am 5.4 1.9 5.3 99 0.0 NNW 13 20 7 11 1006.2 1007.1 9.4
24/04:30am 4.9 1.3 4.8 99 0.0 NNW 13 20 7 11 1006.3 1007.2 9.4
24/04:00am 4.6 0.2 4.5 99 0.0 NW 17 26 9 14 1006.7 1007.5 9.4
24/03:30am 4.9 0.5 4.8 99 0.0 NNW 17 33 9 18 1006.5 1007.4 9.2
24/03:00am 5.5 1.2 5.4 99 0.0 NW 17 32 9 17 1007.2 1008.1 7.2
24/02:30am 5.3 0.9 5.0 98 0.1 NNW 17 28 9 15 1007.3 1008.2 7.2
24/02:00am 5.0 0.6 4.9 99 0.0 NW 17 28 9 15 1007.5 1008.5 7.2
24/01:30am 5.0 -0.8 4.6 97 0.2 NW 24 37 13 20 1008.0 1008.9 7.2
24/01:00am 4.8 0.0 4.4 97 0.2 NW 19 32 10 17 1008.8 1009.7 7.0
24/12:30am 4.9 1.2 4.3 96 0.3 NW 13 20 7 11 1009.3 1010.3 7.0
24/12:00am 5.1 1.4 4.5 96 0.3 NW 13 26 7 14 1009.8 1010.7 7.0
 
Date/Time
EST
Temp
°C
App
Temp
°C
Dew
Point
°C
Rel
Hum
%
Delta-T
°C
Wind Press
QNH
hPa
Press
MSL
hPa
Rain since
9am
mm
Dir  Spd
km/h
Gust
km/h
Spd
kts
Gust
kts
23/11:30pm 5.2 2.0 4.9 98 0.1 NNW 11 17 6 9 1010.0 1011.0 7.0
23/11:00pm 5.5 1.1 4.9 96 0.3 NNW 17 28 9 15 1010.4 1011.4 7.0
23/10:30pm 5.4 1.0 4.8 96 0.3 N 17 26 9 14 1010.5 1011.5 7.0
23/10:00pm 5.7 1.8 5.3 97 0.2 NNW 15 28 8 15 1011.2 1012.2 7.0
23/09:30pm 6.3 2.5 5.9 97 0.2 NNW 15 26 8 14 1011.5 1012.5 7.0
23/09:00pm 6.8 3.5 6.4 97 0.2 NNW 13 22 7 12 1011.4 1012.4 7.0
23/08:30pm 6.8 3.5 6.5 98 0.1 N 13 28 7 15 1011.6 1012.7 7.0
23/08:00pm 6.9 4.5 6.8 99 0.0 N 9 15 5 8 1011.8 1012.8 7.0
23/07:30pm 6.9 3.7 6.8 99 0.0 N 13 22 7 12 1011.9 1012.9 7.0
23/07:00pm 6.9 4.1 6.8 99 0.0 N 11 20 6 11 1011.9 1012.9 7.0
23/06:30pm 6.7 3.8 6.6 99 0.0 WNW 11 26 6 14 1012.2 1013.2 7.0
23/06:00pm 6.8 4.3 6.7 99 0.0 NNW 9 15 5 8 1012.0 1013.0 7.0
23/05:30pm 6.7 3.8 6.6 99 0.0 NW 11 17 6 9 1012.0 1013.0 7.0
23/05:00pm 6.4 3.1 6.3 99 0.0 NW 13 24 7 13 1012.1 1013.1 7.0
23/04:30pm 7.0 3.8 6.9 99 0.0 NW 13 20 7 11 1012.0 1013.0 7.0
23/04:00pm 7.3 4.6 7.2 99 0.0 NNW 11 19 6 10 1012.1 1013.1 7.0
23/03:30pm 7.4 3.2 7.3 99 0.0 NW 19 33 10 18 1012.3 1013.3 7.0
23/03:00pm 7.9 4.9 7.8 99 0.1 NNW 13 22 7 12 1012.2 1013.2 6.8
23/02:30pm 8.1 4.0 8.0 99 0.1 NNW 19 30 10 16 1012.3 1013.3 6.4
23/02:00pm 8.4 4.1 8.0 97 0.2 NNW 20 32 11 17 1012.4 1013.5 6.4
23/01:30pm 8.1 3.8 8.0 99 0.1 NNW 20 35 11 19 1012.6 1013.7 6.4
23/01:00pm 8.2 4.2 8.1 99 0.1 NNW 19 32 10 17 1013.0 1014.0 6.4
23/12:30pm 8.2 3.6 8.1 99 0.1 NW 22 39 12 21 1013.3 1014.4 6.2
23/12:00pm 8.8 4.3 8.7 99 0.1 NW 22 37 12 20 1013.5 1014.6 5.6
23/11:30am 8.5 5.3 8.4 99 0.1 NNW 15 28 8 15 1014.0 1015.0 5.2
23/11:00am 8.4 4.2 8.3 99 0.1 NNW 20 41 11 22 1014.5 1015.6 4.0
23/10:30am 8.5 4.9 8.4 99 0.1 NNW 17 30 9 16 1014.5 1015.6 3.6
23/10:00am 7.9 3.8 7.8 99 0.1 NW 19 35 10 19 1014.7 1015.8 3.6
23/09:30am 8.1 4.8 8.0 99 0.1 NNW 15 24 8 13 1014.7 1015.8 1.0
23/09:00am 8.4 3.8 8.3 99 0.1 NNW 22 39 12 21 1015.1 1016.2 1.0
23/08:30am 8.2 3.6 8.1 99 0.1 NNW 22 33 12 18 1015.2 1016.3 1.0
23/08:00am 8.3 3.7 8.2 99 0.1 NNW 22 39 12 21 1014.7 1015.8 1.0
23/07:30am 8.2 4.0 8.1 99 0.1 NNW 20 33 11 18 1015.0 1016.1 1.0
23/07:00am 8.3 4.0 8.0 98 0.2 NNW 20 37 11 20 1014.9 1016.0 1.0
23/06:30am 8.1 4.0 8.0 99 0.1 NNW 19 32 10 17 1015.1 1016.2 1.0
23/06:00am 8.2 3.6 8.1 99 0.1 NNW 22 35 12 19 1015.4 1016.5 0.8
23/05:30am 8.3 3.7 8.2 99 0.1 N 22 41 12 22 1015.3 1016.4 0.8
23/05:00am 7.9 3.8 7.8 99 0.1 N 19 33 10 18 1015.5 1016.6 0.2
23/04:30am 8.1 3.8 8.0 99 0.1 N 20 33 11 18 1015.6 1016.8 0.2
23/04:00am 7.7 3.0 7.6 99 0.1 N 22 33 12 18 1015.6 1016.8 0.2
23/03:30am 7.8 3.0 7.4 97 0.2 N 22 39 12 21 1016.1 1017.2 0.2
23/03:00am 7.8 3.7 7.7 99 0.1 N 19 32 10 17 1016.4 1017.5 0.2
23/02:30am 7.8 4.0 7.5 98 0.1 N 17 33 9 18 1016.8 1018.0 0.2
23/02:00am 7.6 3.4 7.3 98 0.1 N 19 30 10 16 1017.1 1018.2 0.2
23/01:30am 7.7 3.3 7.4 98 0.1 NNE 20 35 11 19 1017.3 1018.5 0.2
23/01:00am 7.6 4.2 7.5 99 0.0 N 15 26 8 14 1017.6 1018.8 0.2
23/12:30am 7.6 3.8 7.5 99 0.0 NNE 17 22 9 12 1017.7 1018.9 0.2
23/12:00am 8.0 4.6 7.6 97 0.2 N 15 26 8 14 1018.3 1019.5 0.2
 
Date/Time
EST
Temp
°C
App
Temp
°C
Dew
Point
°C
Rel
Hum
%
Delta-T
°C
Wind Press
QNH
hPa
Press
MSL
hPa
Rain since
9am
mm
Dir  Spd
km/h
Gust
km/h
Spd
kts
Gust
kts
22/11:30pm 8.5 4.5 8.2 98 0.2 N 19 32 10 17 1018.4 1019.6 0.2
22/11:00pm 8.6 4.3 8.0 96 0.3 NNW 20 35 11 19 1018.4 1019.6 0.2
22/10:30pm 8.4 3.7 7.8 96 0.3 NNW 22 33 12 18 1018.2 1019.4 0.2
22/10:00pm 8.3 3.6 7.9 97 0.2 NNW 22 41 12 22 1018.5 1019.7 0.2
22/09:30pm 8.4 4.3 7.8 96 0.3 NNW 19 32 10 17 1018.4 1019.6 0.2
22/09:00pm 8.3 4.2 7.7 96 0.3 NW 19 37 10 20 1018.4 1019.6 0.2
22/08:30pm 8.4 3.3 7.8 96 0.3 NW 24 35 13 19 1018.4 1019.6 0.2
22/08:00pm 8.4 4.7 7.8 96 0.3 NNW 17 26 9 14 1018.4 1019.6 0.2
22/07:30pm 8.2 5.1 7.4 95 0.4 NNW 13 26 7 14 1018.6 1019.8 0.2
22/07:00pm 8.0 4.9 7.4 96 0.3 NW 13 20 7 11 1018.6 1019.8 0.2
22/06:30pm 7.8 5.0 7.1 95 0.3 NW 11 20 6 11 1018.5 1019.7 0.2
22/06:00pm 8.1 5.0 7.2 94 0.4 NNW 13 24 7 13 1018.4 1019.6 0.2
22/05:30pm 7.8 5.3 6.6 92 0.6 NNW 9 13 5 7 1018.5 1019.7 0.2
22/05:00pm 8.2 6.2 7.0 92 0.6 N 7 15 4 8 1018.4 1019.6 0.2
22/04:30pm 8.7 6.0 7.2 90 0.7 N 11 20 6 11 1018.3 1019.5 0.2
22/04:00pm 9.8 7.2 7.6 86 1.1 N 11 20 6 11 1018.4 1019.6 0.2
22/03:30pm 10.4 7.9 8.0 85 1.2 NNW 11 17 6 9 1018.5 1019.7 0.2
22/03:00pm 10.9 7.4 7.2 78 1.9 NW 15 26 8 14 1018.5 1019.7 0.2
22/02:30pm 11.4 8.1 7.9 79 1.8 NNW 15 28 8 15 1018.6 1019.8 0.2
22/02:00pm 11.3 7.1 7.6 78 1.9 NW 19 32 10 17 1018.5 1019.7 0.2
22/01:30pm 11.9 6.5 7.8 76 2.1 WNW 26 41 14 22 1018.7 1019.9 0.2
22/01:00pm 11.6 6.1 7.7 77 2.0 WNW 26 39 14 21 1019.0 1020.2 0.2
22/12:30pm 11.8 7.3 8.5 80 1.7 WNW 22 37 12 20 1019.1 1020.3 0.2
22/12:00pm 11.6 5.9 8.3 80 1.7 WNW 28 43 15 23 1019.3 1020.5 0.2
22/11:30am 11.4 6.9 8.4 82 1.6 WNW 22 35 12 19 1019.7 1021.0 0.2
22/11:00am 10.9 6.0 8.3 84 1.3 WNW 24 41 13 22 1020.1 1021.3 0.0
22/10:30am 10.6 6.8 8.9 89 0.9 NW 19 28 10 15 1020.3 1021.5 0.0
22/10:00am 10.3 5.9 8.9 91 0.7 WNW 22 32 12 17 1020.4 1021.6 0.0
22/09:30am 9.4 5.4 8.2 92 0.6 NW 19 33 10 18 1020.5 1021.8 0.0
22/09:00am 8.5 5.2 8.1 97 0.2 NW 15 24 8 13 1020.7 1022.0 0.0
22/08:30am 8.0 3.8 7.6 97 0.2 WNW 19 24 10 13 1020.7 1022.0 0.0
22/08:00am 7.4 3.5 7.3 99 0.0 NW 17 24 9 13 1020.3 1021.5 0.0
22/07:30am 7.1 2.8 7.0 99 0.0 NW 19 28 10 15 1020.2 1021.4 0.0
22/07:00am 6.7 3.4 6.6 99 0.0 WNW 13 24 7 13 1020.0 1021.2 0.0
22/06:30am 6.6 3.3 6.5 99 0.0 WNW 13 22 7 12 1019.8 1021.1 0.0
22/06:00am 6.6 2.6 6.5 99 0.0 WNW 17 26 9 14 1019.6 1020.8 0.0
22/05:30am 6.5 2.1 6.4 99 0.0 WNW 19 30 10 16 1019.4 1020.6 0.0
22/05:00am 4.6 2.6 4.5 99 0.0 NE 4 15 2 8 1019.4 1020.6 0.0
22/04:30am 4.2 2.5 4.1 99 0.0 NW 2 6 1 3 1019.3 1020.5 0.0
22/04:00am 5.7 3.0 5.6 99 0.0 WNW 9 13 5 7 1019.3 1020.5 0.0
22/03:30am 6.4 2.3 6.3 99 0.0 WNW 17 26 9 14 1019.2 1020.4 0.0
22/03:00am 6.2 1.7 6.1 99 0.0 WNW 19 28 10 15 1019.1 1020.3 0.0
22/02:30am 5.9 2.1 5.9 100 0.0 WNW 15 22 8 12 1019.0 1020.2 0.0
22/02:00am 1.5 -0.3 1.4 99 0.0 CALM 0 0 0 0 1019.1 1020.3 0.0
22/01:30am 2.4 0.4 2.3 99 0.0 W 2 9 1 5 1019.1 1020.3 0.0
22/01:00am 3.8 2.0 3.7 99 0.0 WSW 2 6 1 3 1019.2 1020.4 0.0
22/12:30am 2.6 -0.1 2.5 99 0.0 NW 6 11 3 6 1019.3 1020.5 0.0
22/12:00am 3.7 1.0 3.7 100 0.0 WNW 7 11 4 6 1019.5 1020.7 0.0
 
Date/Time
EST
Temp
°C
App
Temp
°C
Dew
Point
°C
Rel
Hum
%
Delta-T
°C
Wind Press
QNH
hPa
Press
MSL
hPa
Rain since
9am
mm
Dir  Spd
km/h
Gust
km/h
Spd
kts
Gust
kts
21/11:30pm 4.9 1.7 4.9 100 0.0 WNW 11 13 6 7 1019.3 1020.5 0.0
21/11:00pm 2.5 0.1 2.4 99 0.0 WSW 4 9 2 5 1019.2 1020.4 0.0
21/10:30pm 2.4 0.8 2.3 99 0.0 CALM 0 0 0 0 1019.2 1020.4 0.0
21/10:00pm 4.3 1.7 4.2 99 0.0 SW 7 11 4 6 1019.1 1020.3 0.0
21/09:30pm 4.4 2.0 4.3 99 0.0 SSW 6 11 3 6 1019.0 1020.2 0.0
21/09:00pm 5.9 2.1 5.8 99 0.0 W 15 19 8 10 1019.0 1020.2 0.0
21/08:30pm 5.7 1.9 5.6 99 0.0 W 15 17 8 9 1018.5 1019.7 0.0
21/08:00pm 6.0 2.6 5.9 99 0.0 W 13 15 7 8 1018.5 1019.7 0.0

Other Formats:

Comma delimited format used in spreadsheet applications
http://www.bom.gov.au/fwo/IDT60801/IDT60801.95959.axf

JavaScript Object Notation format (JSON) in row-major order
http://www.bom.gov.au/fwo/IDT60801/IDT60801.95959.json